createdAt,value
2018-07-06T03:34:53.131Z,95.80
2018-07-06T03:37:37.018Z,95.80
2018-07-06T03:40:20.780Z,95.80
2018-07-06T03:43:04.574Z,95.80
2018-07-06T03:45:48.433Z,95.80
2018-07-06T03:48:32.133Z,95.60
2018-07-06T03:51:16.288Z,95.40
2018-07-06T03:54:00.137Z,95.10
2018-07-06T03:56:44.121Z,94.60
2018-07-06T03:59:27.993Z,93.80
2018-07-06T04:02:11.818Z,93.30
2018-07-06T04:04:55.800Z,92.70
2018-07-06T04:07:39.435Z,91.80
2018-07-06T04:10:23.222Z,90.90
2018-07-06T04:13:07.080Z,89.80
2018-07-06T04:15:50.785Z,90.10
2018-07-06T04:18:34.752Z,88.30
2018-07-06T04:21:18.653Z,87.50
2018-07-06T04:24:02.330Z,86.70
2018-07-06T04:26:46.074Z,87.70
2018-07-06T04:29:30.062Z,88.30
2018-07-06T04:32:13.702Z,87.90
2018-07-06T04:34:57.453Z,88.40
2018-07-06T04:37:41.342Z,89.60
2018-07-06T04:40:25.111Z,89.30
2018-07-06T04:43:08.893Z,89.20
2018-07-06T04:45:52.693Z,89.50
2018-07-06T04:48:36.780Z,88.70
2018-07-06T04:51:20.429Z,88.20
2018-07-06T04:54:04.137Z,86.30
2018-07-06T04:56:47.960Z,83.90
2018-07-06T04:59:31.842Z,82.30
2018-07-06T05:02:15.718Z,82.30
2018-07-06T05:04:59.527Z,82.00
2018-07-06T05:07:43.359Z,81.00
2018-07-06T05:10:26.976Z,78.40
2018-07-06T05:13:10.580Z,76.10
2018-07-06T05:15:54.484Z,74.70
2018-07-06T05:18:38.354Z,72.20
2018-07-06T05:21:22.147Z,70.00
2018-07-06T05:24:06.253Z,69.50
2018-07-06T05:26:50.094Z,69.90
2018-07-06T05:29:33.770Z,68.20
2018-07-06T05:32:17.611Z,68.20
2018-07-06T05:35:01.415Z,66.20
2018-07-06T05:37:45.389Z,66.80
2018-07-06T05:40:29.195Z,67.20
2018-07-06T05:43:13.017Z,65.90
2018-07-06T05:45:56.740Z,64.20
2018-07-06T05:48:40.550Z,67.10
2018-07-06T05:51:24.414Z,69.00
2018-07-06T05:54:08.480Z,69.60
2018-07-06T05:56:52.356Z,68.20
2018-07-06T05:59:36.093Z,69.10
2018-07-06T06:02:20.222Z,70.40
2018-07-06T06:05:04.121Z,71.70
2018-07-06T06:07:35.510Z,74.50
2018-07-06T06:10:08.141Z,76.50
2018-07-06T06:12:40.545Z,77.80
2018-07-06T06:15:13.246Z,79.30
2018-07-06T06:17:45.892Z,80.90
2018-07-06T06:20:18.281Z,82.20
2018-07-06T06:22:50.721Z,84.00
2018-07-06T06:25:23.121Z,85.90
2018-07-06T06:27:55.812Z,87.00
2018-07-06T06:30:28.225Z,88.20
2018-07-06T06:33:01.049Z,89.40
2018-07-06T06:35:33.897Z,90.20
2018-07-06T06:38:06.312Z,90.60
2018-07-06T06:40:39.153Z,91.00
2018-07-06T06:43:11.556Z,91.30
2018-07-06T06:45:44.235Z,91.50
2018-07-06T06:48:16.640Z,91.50
2018-07-06T06:50:49.062Z,91.20
2018-07-06T06:53:21.413Z,91.00
2018-07-06T06:55:54.163Z,90.90
2018-07-06T06:58:26.793Z,90.70
2018-07-06T07:00:59.492Z,90.80
2018-07-06T07:03:32.487Z,90.90
2018-07-06T07:08:37.175Z,90.70
2018-07-06T07:11:09.591Z,90.50
2018-07-06T07:13:41.993Z,90.30
2018-07-06T07:16:14.631Z,89.60
2018-07-06T07:18:47.569Z,88.50
2018-07-06T07:21:19.948Z,87.60
2018-07-06T07:23:52.333Z,86.70
2018-07-06T07:26:25.045Z,86.10
2018-07-06T07:28:57.425Z,84.90
2018-07-06T07:31:29.807Z,82.50
2018-07-06T07:34:02.217Z,82.10
2018-07-06T07:39:02.005Z,82.60
2018-07-06T07:41:34.312Z,81.80
2018-07-06T07:44:06.716Z,80.90
2018-07-06T07:46:39.167Z,81.50
2018-07-06T07:49:11.493Z,82.70
2018-07-06T07:51:55.256Z,82.50
2018-07-06T07:54:27.697Z,81.20
2018-07-06T07:57:00.116Z,80.70
2018-07-06T07:59:32.589Z,81.20
2018-07-06T08:02:05.458Z,81.60
2018-07-06T08:04:38.333Z,82.70
2018-07-06T08:07:10.709Z,83.30
2018-07-06T08:09:43.121Z,83.60
2018-07-06T08:12:15.828Z,83.40
2018-07-06T08:14:48.505Z,83.40
2018-07-06T08:17:20.877Z,83.80
2018-07-06T08:19:53.263Z,83.80
2018-07-06T08:22:25.913Z,83.70
2018-07-06T08:24:58.330Z,84.10
2018-07-06T08:27:31.006Z,83.80
2018-07-06T08:30:03.408Z,83.20
2018-07-06T08:32:36.057Z,82.80
2018-07-06T08:35:19.796Z,82.70
2018-07-06T08:37:58.113Z,84.50
2018-07-06T08:40:30.513Z,84.30
2018-07-06T08:43:02.897Z,84.30
2018-07-06T08:45:35.553Z,83.10
2018-07-06T08:48:07.961Z,83.00
2018-07-06T08:50:40.691Z,83.40
2018-07-06T08:53:13.305Z,83.20
2018-07-06T08:55:46.013Z,83.20
2018-07-06T08:58:18.420Z,83.10
2018-07-06T09:00:51.089Z,83.50
2018-07-06T09:03:23.870Z,84.20
2018-07-06T09:05:56.549Z,84.40
2018-07-06T09:08:29.017Z,84.40
2018-07-06T09:11:01.910Z,83.10
2018-07-06T09:13:34.733Z,82.20
2018-07-06T09:16:07.441Z,80.60
2018-07-06T09:18:40.274Z,80.50
2018-07-06T09:21:13.033Z,79.60
2018-07-06T09:23:45.912Z,79.30
2018-07-06T09:26:18.685Z,78.80
2018-07-06T09:28:51.431Z,79.10
2018-07-06T09:31:24.189Z,78.60
2018-07-06T09:33:56.974Z,78.70
2018-07-06T09:36:29.378Z,77.50
2018-07-06T09:39:02.089Z,77.50
2018-07-06T09:41:34.819Z,76.90
2018-07-06T09:44:07.257Z,76.80
2018-07-06T09:46:39.990Z,76.40
2018-07-06T09:49:12.649Z,74.70
2018-07-06T09:51:45.074Z,75.40
2018-07-06T09:54:17.811Z,74.10
2018-07-06T09:56:50.205Z,74.40
2018-07-06T09:59:22.699Z,73.20
2018-07-06T10:01:55.097Z,70.70
2018-07-06T10:04:27.564Z,71.60
2018-07-06T10:06:59.866Z,72.00
2018-07-06T10:09:32.254Z,71.80
2018-07-06T10:12:04.724Z,70.70
2018-07-06T10:14:37.117Z,69.50
2018-07-06T10:17:09.781Z,68.60
2018-07-06T10:19:42.248Z,69.70
2018-07-06T10:22:14.589Z,69.40
2018-07-06T10:24:47.011Z,67.90
2018-07-06T10:27:20.287Z,67.70
2018-07-06T10:29:59.593Z,63.70
2018-07-06T10:32:31.974Z,62.30
2018-07-06T10:35:04.441Z,60.40
2018-07-06T10:37:36.981Z,59.70
2018-07-06T10:40:09.513Z,61.20
2018-07-06T10:42:42.441Z,60.20
2018-07-06T10:45:15.061Z,59.40
2018-07-06T10:47:47.657Z,58.00
2018-07-06T10:50:20.058Z,57.80
2018-07-06T10:52:52.445Z,57.00
2018-07-06T10:55:24.833Z,56.80
2018-07-06T10:57:57.223Z,54.80
2018-07-06T11:00:29.659Z,55.20
2018-07-06T11:03:02.334Z,55.30
2018-07-06T11:05:34.753Z,55.10
2018-07-06T11:08:07.208Z,53.90
2018-07-06T11:10:39.629Z,53.10
2018-07-06T11:13:12.254Z,51.80
2018-07-06T11:18:17.420Z,53.30
2018-07-06T11:20:49.810Z,52.40
2018-07-06T11:23:22.472Z,52.70
2018-07-06T11:25:54.861Z,53.30
2018-07-06T11:28:27.647Z,53.40
2018-07-06T11:31:00.040Z,54.00
2018-07-06T11:33:32.423Z,54.30
2018-07-06T11:36:05.180Z,54.00
2018-07-06T11:38:37.549Z,52.90
2018-07-06T11:41:10.249Z,52.40
2018-07-06T11:43:42.945Z,53.10
2018-07-06T11:46:15.353Z,53.60
2018-07-06T11:48:47.737Z,55.10
2018-07-06T11:51:20.125Z,56.20
2018-07-06T11:53:52.738Z,57.70
2018-07-06T11:56:25.627Z,57.80
2018-07-06T11:58:58.000Z,58.20
2018-07-06T12:01:30.618Z,58.20
2018-07-06T12:04:03.087Z,59.30
2018-07-06T12:06:35.400Z,59.30
2018-07-06T12:09:08.048Z,59.10
2018-07-06T12:11:40.662Z,58.90
2018-07-06T12:14:13.553Z,58.60
2018-07-06T12:16:45.949Z,59.40
2018-07-06T12:19:18.424Z,59.60
2018-07-06T12:21:51.058Z,59.30
2018-07-06T12:24:23.432Z,58.90
2018-07-06T12:26:55.821Z,58.90
2018-07-06T12:29:28.445Z,59.40
2018-07-06T12:32:00.869Z,59.80
2018-07-06T12:34:33.233Z,60.10
2018-07-06T12:37:05.661Z,60.00
2018-07-06T12:39:38.029Z,59.80
2018-07-06T12:42:10.422Z,59.80
2018-07-06T12:44:43.078Z,60.10
2018-07-06T12:47:15.510Z,60.60
2018-07-06T12:49:47.888Z,61.00
2018-07-06T12:52:20.305Z,61.10
2018-07-06T12:54:52.693Z,60.60
2018-07-06T12:57:25.101Z,60.10
2018-07-06T12:59:57.502Z,59.70
2018-07-06T13:02:30.149Z,60.40
2018-07-06T13:05:02.597Z,59.50
2018-07-06T13:07:35.023Z,60.00
2018-07-06T13:10:07.421Z,61.10
2018-07-06T13:12:40.117Z,60.30
2018-07-06T13:15:12.521Z,59.10
2018-07-06T13:17:44.953Z,59.00
2018-07-06T13:20:17.677Z,58.10
2018-07-06T13:22:50.078Z,58.90
2018-07-06T13:25:22.785Z,59.60
2018-07-06T13:27:55.298Z,59.40
2018-07-06T13:30:27.977Z,59.40
2018-07-06T13:33:00.401Z,59.10
2018-07-06T13:35:32.789Z,59.20
2018-07-06T13:38:05.604Z,59.30
2018-07-06T13:40:37.998Z,59.60
2018-07-06T13:43:10.389Z,59.80
2018-07-06T13:45:42.824Z,60.50
2018-07-06T13:48:15.181Z,60.20
2018-07-06T13:50:47.874Z,59.90
2018-07-06T13:53:20.257Z,59.30
2018-07-06T13:55:52.657Z,59.20
2018-07-06T13:58:25.048Z,59.20
2018-07-06T14:00:57.769Z,59.30
2018-07-06T14:03:30.458Z,58.40
2018-07-06T14:06:02.834Z,57.80
2018-07-06T14:08:35.219Z,57.90
2018-07-06T14:11:07.589Z,57.90
2018-07-06T14:13:39.990Z,57.30
2018-07-06T14:16:12.371Z,56.80
2018-07-06T14:18:45.014Z,56.70
2018-07-06T14:21:17.621Z,57.00
2018-07-06T14:23:50.285Z,56.70
2018-07-06T14:26:22.657Z,56.10
2018-07-06T14:28:55.289Z,56.00
2018-07-06T14:31:27.969Z,55.80
2018-07-06T14:34:00.365Z,56.10
2018-07-06T14:36:32.732Z,55.70
2018-07-06T14:39:06.485Z,55.60
2018-07-06T14:41:38.890Z,56.50
2018-07-06T14:44:11.271Z,57.20
2018-07-06T14:46:43.701Z,57.40
2018-07-06T14:49:16.132Z,57.70
2018-07-06T14:51:48.543Z,57.50
2018-07-06T14:54:20.933Z,57.70
2018-07-06T14:56:53.366Z,58.40
2018-07-06T14:59:26.049Z,59.30
2018-07-06T15:01:58.448Z,59.70
2018-07-06T15:04:31.153Z,60.10
2018-07-06T15:07:03.618Z,60.70
2018-07-06T15:09:36.217Z,61.80
2018-07-06T15:12:08.632Z,62.10
2018-07-06T15:14:41.014Z,61.70
2018-07-06T15:17:13.732Z,61.80
2018-07-06T15:19:46.449Z,61.70
2018-07-06T15:22:19.089Z,62.20
2018-07-06T15:24:51.550Z,62.10
2018-07-06T15:27:24.137Z,61.80
2018-07-06T15:29:56.529Z,61.20
2018-07-06T15:32:28.938Z,60.80
2018-07-06T15:35:01.335Z,60.30
2018-07-06T15:37:33.729Z,59.40
2018-07-06T15:40:06.142Z,59.50
2018-07-06T15:42:38.777Z,59.30
2018-07-06T15:45:11.454Z,58.60
2018-07-06T15:47:43.859Z,58.80
2018-07-06T15:50:16.249Z,58.80
2018-07-06T15:52:48.633Z,58.80
2018-07-06T15:55:21.341Z,59.30
2018-07-06T15:57:53.727Z,59.50
2018-07-06T16:00:26.329Z,59.60
2018-07-06T16:02:58.977Z,59.90
2018-07-06T16:05:31.353Z,59.80
2018-07-06T16:08:03.790Z,59.90
2018-07-06T16:10:36.158Z,59.90
2018-07-06T16:13:08.577Z,59.40
2018-07-06T16:15:40.956Z,59.30
2018-07-06T16:18:14.105Z,59.50
2018-07-06T16:20:46.529Z,59.40
2018-07-06T16:23:18.877Z,59.30
2018-07-06T16:25:51.569Z,59.00
2018-07-06T16:28:23.945Z,59.10
2018-07-06T16:30:56.309Z,59.00
2018-07-06T16:33:28.949Z,58.90
2018-07-06T16:36:01.317Z,59.20
2018-07-06T16:38:33.993Z,59.40
2018-07-06T16:41:07.277Z,59.20
2018-07-06T16:43:39.674Z,59.30
2018-07-06T16:48:44.326Z,59.10
2018-07-06T16:51:16.692Z,57.70
2018-07-06T16:53:49.073Z,58.30
2018-07-06T16:56:21.457Z,58.50
2018-07-06T16:58:54.067Z,59.30
2018-07-06T17:01:26.446Z,59.60
2018-07-06T17:03:59.141Z,59.40
2018-07-06T17:06:31.546Z,59.50
2018-07-06T17:09:04.692Z,59.80
2018-07-06T17:11:37.068Z,58.40
2018-07-06T17:14:09.748Z,57.80
2018-07-06T17:16:42.669Z,58.00
2018-07-06T17:19:15.697Z,58.50
2018-07-06T17:21:48.039Z,57.80
2018-07-06T17:24:20.706Z,58.00
2018-07-06T17:26:53.296Z,57.80
2018-07-06T17:29:25.685Z,58.20
2018-07-06T17:31:58.333Z,58.20
2018-07-06T17:34:30.733Z,58.00
2018-07-06T17:37:03.180Z,57.80
2018-07-06T17:39:35.809Z,58.10
2018-07-06T17:42:08.181Z,58.00
2018-07-06T17:44:40.806Z,58.10
2018-07-06T17:47:13.188Z,58.30
2018-07-06T17:49:45.929Z,58.00
2018-07-06T17:52:18.313Z,58.20
2018-07-06T17:54:50.704Z,58.30
2018-07-06T17:57:23.078Z,58.20
2018-07-06T17:59:55.681Z,58.50
2018-07-06T18:02:28.333Z,58.60
2018-07-06T18:05:00.953Z,58.70
2018-07-06T18:07:33.653Z,58.90
2018-07-06T18:10:06.041Z,58.40
2018-07-06T18:12:38.439Z,58.00
2018-07-06T18:15:10.840Z,58.00
2018-07-06T18:17:43.217Z,57.90
2018-07-06T18:20:15.646Z,57.60
2018-07-06T18:22:48.709Z,57.60
2018-07-06T18:25:21.157Z,57.60
2018-07-06T18:27:53.530Z,57.60
2018-07-06T18:30:26.252Z,57.60
2018-07-06T18:32:58.632Z,56.70
2018-07-06T18:35:31.049Z,57.30
2018-07-06T18:38:03.479Z,57.00
2018-07-06T18:40:36.157Z,56.50
2018-07-06T18:43:08.522Z,56.00
2018-07-06T18:48:13.126Z,56.10
2018-07-06T18:50:45.789Z,56.10
2018-07-06T18:53:18.160Z,56.40
2018-07-06T18:55:50.557Z,56.50
2018-07-06T18:58:22.925Z,56.70
2018-07-06T19:00:55.845Z,56.80
2018-07-06T19:03:28.225Z,57.00
2018-07-06T19:06:00.898Z,57.40
2018-07-06T19:08:33.309Z,57.50
2018-07-06T19:11:05.763Z,57.60
2018-07-06T19:13:38.426Z,57.90
2018-07-06T19:16:10.819Z,58.10
2018-07-06T19:18:43.221Z,58.10
2018-07-06T19:21:15.601Z,58.40
2018-07-06T19:23:48.317Z,58.50
2018-07-06T19:26:20.702Z,58.60
2018-07-06T19:28:53.077Z,58.90
2018-07-06T19:31:25.741Z,59.00
2018-07-06T19:33:58.110Z,59.30
2018-07-06T19:36:30.545Z,59.50
